Terminal Aerodrome Forecast
Issued by NWS

Current Version | Previous Version | Text Only | Print | Product List | Glossary Off
Versions: 1 2 3 4 5 6 7 8 9 10 11 12 13 14 15 16 17 18 19 20 21 22

000
FTUS41 KILN 301134
TAFLUK
TAF
KLUK 301134Z 3012/3112 00000KT 2SM BR SCT002 SCT060 SCT150
      TEMPO 3012/3013 1/2SM FG BKN002
     FM301400 20004KT P6SM SCT025 SCT150
     FM301800 21007KT P6SM VCSH BKN040
     FM310000 22003KT P6SM SCT150
      TEMPO 3108/3112 00000KT 3SM BR SKC=

USA.gov is the U.S. government's official web portal to all federal, state and local government web resources and services.